Time;durP1;ratioP1;P1;durP2;ratioP2;P2;SDS_P1;SDS_P2;PMS_P1;PMS_P2;Temp;Humidity;BMP_temperature;BMP_pressure;BME280_temperature;BME280_humidity;BME280_pressure;Samples;Min_cycle;Max_cycle;Signal;HPM_P1;HPM_P2
2020/12/12 00:02:20;;;;;;;142.52;75.85;;;6.90;99.90;;;;;;5074264;28;20819;-81
2020/12/12 00:04:46;;;;;;;129.27;69.20;;;6.80;99.90;;;;;;5091838;28;20369;-81
2020/12/12 00:07:12;;;;;;;108.32;63.40;;;6.90;99.90;;;;;;5092579;28;20396;-82
2020/12/12 00:09:38;;;;;;;116.85;61.00;;;6.80;99.90;;;;;;5073958;28;20450;-82
2020/12/12 00:12:05;;;;;;;108.78;57.47;;;6.90;99.90;;;;;;5074303;28;20714;-80
2020/12/12 00:14:31;;;;;;;222.63;90.40;;;6.80;99.90;;;;;;5073825;28;20377;-80
2020/12/12 00:16:58;;;;;;;357.17;124.90;;;6.90;99.90;;;;;;5091902;28;20445;-81
2020/12/12 00:19:24;;;;;;;319.23;124.90;;;6.80;99.90;;;;;;5090467;28;20364;-80
2020/12/12 00:21:54;;;;;;;183.82;83.07;;;6.90;99.90;;;;;;5091796;28;20846;-81
2020/12/12 00:24:21;;;;;;;121.07;61.50;;;6.80;99.90;;;;;;5092381;28;20378;-81
2020/12/12 00:26:47;;;;;;;137.05;67.95;;;6.90;99.90;;;;;;5074112;28;20364;-81
2020/12/12 00:29:14;;;;;;;143.37;70.63;;;6.80;99.90;;;;;;5074089;28;20761;-81
2020/12/12 00:31:41;;;;;;;130.45;63.40;;;6.80;99.90;;;;;;5092116;28;20506;-81
2020/12/12 00:34:08;;;;;;;168.98;79.93;;;6.80;99.90;;;;;;5092217;28;20368;-81
2020/12/12 00:36:43;;;;;;;170.75;83.80;;;6.80;99.90;;;;;;5074010;28;20909;-81
2020/12/12 00:39:09;;;;;;;163.25;78.10;;;6.90;99.90;;;;;;5092101;28;20449;-81
2020/12/12 00:41:39;;;;;;;200.60;94.90;;;6.80;99.90;;;;;;5092128;28;20418;-81
2020/12/12 00:44:06;;;;;;;185.13;89.72;;;6.80;99.90;;;;;;5073799;28;20503;-80
2020/12/12 00:46:33;;;;;;;158.23;77.45;;;6.80;99.90;;;;;;5066572;28;20445;-81
2020/12/12 00:48:59;;;;;;;134.13;69.77;;;6.80;99.90;;;;;;5071731;28;20420;-80
2020/12/12 00:51:25;;;;;;;144.40;71.43;;;6.80;99.90;;;;;;5071752;28;20373;-80
2020/12/12 00:53:51;;;;;;;192.17;90.83;;;6.80;99.90;;;;;;5053789;28;20374;-80
2020/12/12 00:56:18;;;;;;;153.07;74.50;;;6.80;99.90;;;;;;5073998;28;20374;-81
2020/12/12 00:58:43;;;;;;;185.93;94.28;;;6.80;99.90;;;;;;5091408;28;20767;-81
2020/12/12 01:01:10;;;;;;;164.77;81.40;;;6.80;99.90;;;;;;5091483;28;20378;-80
2020/12/12 01:03:37;;;;;;;134.73;66.03;;;6.80;99.90;;;;;;5075738;28;20370;-81
2020/12/12 01:06:04;;;;;;;104.55;53.55;;;6.80;99.90;;;;;;5057549;28;20401;-81
2020/12/12 01:08:30;;;;;;;98.63;50.53;;;6.70;99.90;;;;;;5075581;28;20417;-81
2020/12/12 01:10:56;;;;;;;90.35;49.10;;;6.80;99.90;;;;;;5075785;28;20484;-81
2020/12/12 01:13:22;;;;;;;104.22;54.30;;;6.80;99.90;;;;;;5075394;28;20453;-81
2020/12/12 01:15:48;;;;;;;171.73;85.97;;;6.70;99.90;;;;;;5057381;28;20400;-81
2020/12/12 01:18:14;;;;;;;219.33;102.77;;;6.80;99.90;;;;;;5057303;28;20390;-81
2020/12/12 01:20:40;;;;;;;128.90;62.07;;;6.70;99.90;;;;;;5057395;28;20464;-81
2020/12/12 01:23:07;;;;;;;185.68;87.25;;;6.70;99.90;;;;;;5075257;28;20817;-81
2020/12/12 01:25:37;;;;;;;200.25;91.15;;;6.70;99.90;;;;;;5075142;28;20702;-81
2020/12/12 01:28:06;;;;;;;211.23;92.03;;;6.70;99.90;;;;;;5075178;28;20400;-82
2020/12/12 01:30:33;;;;;;;153.80;70.35;;;6.70;99.90;;;;;;5057226;28;20413;-82
2020/12/12 01:32:59;;;;;;;127.65;60.67;;;6.70;99.90;;;;;;5090790;28;20729;-82
2020/12/12 01:35:25;;;;;;;205.48;89.28;;;6.70;99.90;;;;;;5075016;28;20388;-82
2020/12/12 01:37:51;;;;;;;170.95;75.38;;;6.70;99.90;;;;;;5074908;28;20740;-82
2020/12/12 01:40:17;;;;;;;174.27;81.35;;;6.70;99.90;;;;;;5057058;28;20367;-82
2020/12/12 01:42:43;;;;;;;183.25;82.38;;;6.70;99.90;;;;;;5074967;28;20439;-82
2020/12/12 01:45:10;;;;;;;197.80;89.83;;;6.60;99.90;;;;;;5090524;28;20385;-82
2020/12/12 01:47:37;;;;;;;175.00;78.05;;;6.70;99.90;;;;;;5056787;28;20687;-81
2020/12/12 01:50:06;;;;;;;213.53;93.00;;;6.70;99.90;;;;;;5074774;28;20392;-81
2020/12/12 01:52:33;;;;;;;164.13;72.35;;;6.70;99.90;;;;;;5056775;28;20432;-81
2020/12/12 01:55:00;;;;;;;273.35;110.45;;;6.70;99.90;;;;;;5074711;28;20368;-81
2020/12/12 01:57:26;;;;;;;254.13;109.40;;;6.70;99.90;;;;;;5074560;28;20449;-81
2020/12/12 01:59:52;;;;;;;207.47;91.73;;;6.70;99.90;;;;;;5074678;28;20833;-81
2020/12/12 02:02:22;;;;;;;189.55;83.78;;;6.70;99.90;;;;;;5074578;28;20759;-81
2020/12/12 02:04:53;;;;;;;170.55;78.30;;;6.70;99.90;;;;;;5074518;28;20697;-81
2020/12/12 02:07:21;;;;;;;170.65;77.07;;;6.70;99.90;;;;;;5073769;28;20370;-81
2020/12/12 02:32:35;;;;;;;142.05;65.57;;;6.70;99.90;;;;;;5050456;28;20877;-80
2020/12/12 02:35:03;;;;;;;122.43;63.25;;;6.70;99.90;;;;;;5073920;28;20484;-81
2020/12/12 02:37:28;;;;;;;124.30;63.03;;;6.60;99.90;;;;;;5089840;28;20396;-80
2020/12/12 02:39:54;;;;;;;119.78;59.47;;;6.70;99.90;;;;;;5089425;28;20374;-80
2020/12/12 02:49:04;;;;;;;110.20;55.95;;;6.60;99.90;;;;;;5074574;28;20487;-80
2020/12/12 02:51:29;;;;;;;102.32;55.50;;;6.60;99.90;;;;;;5073807;28;20908;-80
2020/12/12 02:53:55;;;;;;;113.20;56.25;;;6.60;99.90;;;;;;5073914;28;20366;-80
2020/12/12 02:56:21;;;;;;;109.13;53.95;;;6.70;99.90;;;;;;5073462;28;20362;-80
2020/12/12 02:58:47;;;;;;;103.50;54.78;;;6.70;99.90;;;;;;5089318;28;20385;-80
2020/12/12 03:01:13;;;;;;;99.93;53.35;;;6.70;99.90;;;;;;5073530;28;20385;-80
2020/12/12 03:03:38;;;;;;;103.72;53.33;;;6.60;99.90;;;;;;5073662;28;20359;-81
2020/12/12 03:06:04;;;;;;;91.90;49.67;;;6.60;99.90;;;;;;5073517;28;20449;-80
2020/12/12 03:08:30;;;;;;;100.57;51.42;;;6.60;99.90;;;;;;5073419;28;20374;-80
2020/12/12 03:10:56;;;;;;;97.45;52.40;;;6.60;99.90;;;;;;5055489;28;20436;-80
2020/12/12 03:13:22;;;;;;;93.75;48.83;;;6.60;99.90;;;;;;5073284;28;20803;-80
2020/12/12 03:15:48;;;;;;;90.13;48.67;;;6.70;99.90;;;;;;5055601;28;20469;-81
2020/12/12 03:18:14;;;;;;;90.28;47.80;;;6.60;99.90;;;;;;5088837;28;20384;-81
2020/12/12 03:20:40;;;;;;;89.47;46.95;;;6.60;99.90;;;;;;5055579;28;20382;-81
2020/12/12 03:23:06;;;;;;;82.15;44.08;;;6.70;99.90;;;;;;5055193;28;20420;-80
2020/12/12 03:25:31;;;;;;;88.32;45.00;;;6.60;99.90;;;;;;5073171;28;20450;-81
2020/12/12 03:27:57;;;;;;;83.80;44.00;;;6.70;99.90;;;;;;5073755;28;20378;-81
2020/12/12 03:30:23;;;;;;;88.85;45.55;;;6.70;99.90;;;;;;5073284;28;20392;-81
2020/12/12 03:32:49;;;;;;;85.55;45.40;;;6.70;99.90;;;;;;5089287;28;20396;-81
2020/12/12 03:35:15;;;;;;;87.38;45.60;;;6.70;99.90;;;;;;5072925;28;20381;-81
2020/12/12 03:37:40;;;;;;;90.78;48.70;;;6.70;99.90;;;;;;5072747;28;20476;-81
2020/12/12 03:40:06;;;;;;;97.57;50.80;;;6.70;99.90;;;;;;5072876;28;20772;-81
2020/12/12 03:42:33;;;;;;;115.00;57.88;;;6.70;99.90;;;;;;5072840;28;20366;-81
2020/12/12 03:44:58;;;;;;;115.28;57.22;;;6.60;99.90;;;;;;5072801;28;20829;-81
2020/12/12 03:47:24;;;;;;;105.00;54.93;;;6.70;99.90;;;;;;5072747;28;20362;-81
2020/12/12 03:49:50;;;;;;;106.43;54.87;;;6.70;99.90;;;;;;5072763;28;20366;-82
2020/12/12 03:52:16;;;;;;;103.77;53.57;;;6.70;99.90;;;;;;5073172;28;20424;-81
2020/12/12 03:54:42;;;;;;;105.05;56.13;;;6.70;99.90;;;;;;5054704;28;20767;-82
2020/12/12 03:57:08;;;;;;;113.60;57.47;;;6.70;99.90;;;;;;5072570;28;20381;-81
2020/12/12 03:59:34;;;;;;;120.25;60.47;;;6.70;99.90;;;;;;5054504;28;20370;-82
2020/12/12 04:02:00;;;;;;;121.22;61.58;;;6.70;99.90;;;;;;5054681;28;20419;-81
2020/12/12 04:04:26;;;;;;;129.63;64.80;;;6.60;99.90;;;;;;5072510;28;20845;-81
2020/12/12 04:06:52;;;;;;;120.83;59.90;;;6.60;99.90;;;;;;5072432;28;20365;-81
2020/12/12 04:09:17;;;;;;;133.70;62.50;;;6.60;99.90;;;;;;5072746;28;20782;-81
2020/12/12 04:11:43;;;;;;;186.20;82.07;;;6.60;99.90;;;;;;5072434;28;20370;-81
2020/12/12 04:14:09;;;;;;;141.03;68.27;;;6.60;99.90;;;;;;5072394;28;20405;-81
2020/12/12 04:16:35;;;;;;;137.93;68.85;;;6.60;99.90;;;;;;5072606;28;20381;-81
2020/12/12 04:19:01;;;;;;;134.05;64.65;;;6.60;99.90;;;;;;5088015;28;20374;-81
2020/12/12 04:21:26;;;;;;;122.15;60.40;;;6.60;99.90;;;;;;5072313;28;20864;-80
2020/12/12 04:23:52;;;;;;;121.37;59.93;;;6.60;99.90;;;;;;5072335;28;20373;-80
2020/12/12 04:26:18;;;;;;;116.43;60.47;;;6.60;99.90;;;;;;5072276;28;20373;-81
2020/12/12 04:28:44;;;;;;;107.30;53.90;;;6.60;99.90;;;;;;5054266;28;20362;-81
2020/12/12 04:31:10;;;;;;;104.88;54.40;;;6.60;99.90;;;;;;5087338;28;20407;-81
2020/12/12 04:33:36;;;;;;;111.40;55.53;;;6.60;99.90;;;;;;5072157;28;20463;-81
2020/12/12 04:36:03;;;;;;;99.30;52.03;;;6.60;99.90;;;;;;5072183;28;20401;-81
2020/12/12 04:38:31;;;;;;;107.50;56.33;;;6.60;99.90;;;;;;5072459;28;20374;-81
2020/12/12 04:40:58;;;;;;;108.97;55.30;;;6.60;99.90;;;;;;5072414;28;20375;-81
2020/12/12 04:43:25;;;;;;;109.40;56.47;;;6.60;99.90;;;;;;5054927;28;20373;-81
2020/12/12 04:45:52;;;;;;;107.00;56.10;;;6.60;99.90;;;;;;5072956;28;20374;-81
2020/12/12 04:48:18;;;;;;;110.38;55.88;;;6.60;99.90;;;;;;5071951;28;20445;-81
2020/12/12 04:50:46;;;;;;;106.88;54.15;;;6.60;99.90;;;;;;5072326;28;20362;-82
2020/12/12 04:53:14;;;;;;;114.75;58.58;;;6.60;99.90;;;;;;5072042;28;20366;-81
2020/12/12 04:55:52;;;;;;;100.75;53.17;;;6.60;99.90;;;;;;5071935;28;20382;-81
2020/12/12 04:58:24;;;;;;;98.88;51.38;;;6.70;99.90;;;;;;5071924;28;20386;-81
2020/12/12 05:00:51;;;;;;;100.40;52.85;;;6.60;99.90;;;;;;5071921;28;20374;-81
2020/12/12 05:03:19;;;;;;;106.70;53.55;;;6.60;99.90;;;;;;5071941;28;20424;-81
2020/12/12 05:05:45;;;;;;;112.70;51.97;;;6.60;99.90;;;;;;5053904;28;20367;-80
2020/12/12 05:08:12;;;;;;;102.72;52.08;;;6.60;99.90;;;;;;5071858;28;20431;-80
2020/12/12 05:10:47;;;;;;;104.82;53.47;;;6.60;99.90;;;;;;5072582;28;20385;-80
2020/12/12 05:13:31;;;;;;;114.47;57.17;;;6.60;99.90;;;;;;5071919;28;20416;-80
2020/12/12 05:15:58;;;;;;;117.70;60.45;;;6.60;99.90;;;;;;5071771;28;20377;-80
2020/12/12 05:18:25;;;;;;;113.43;57.38;;;6.60;99.90;;;;;;5054078;28;20378;-80
2020/12/12 05:20:51;;;;;;;135.48;56.95;;;6.60;99.90;;;;;;5087476;28;20374;-80
2020/12/12 05:23:27;;;;;;;104.30;56.33;;;6.60;99.90;;;;;;5071984;28;20358;-80
2020/12/12 05:25:53;;;;;;;109.85;56.83;;;6.60;99.90;;;;;;5071991;28;20445;-80
2020/12/12 05:28:21;;;;;;;110.90;55.47;;;6.60;99.90;;;;;;5071816;28;20382;-81
2020/12/12 05:30:49;;;;;;;97.43;50.95;;;6.60;99.90;;;;;;5071736;28;20370;-81
2020/12/12 05:33:21;;;;;;;102.47;52.22;;;6.60;99.90;;;;;;5071490;28;20386;-80
2020/12/12 05:35:47;;;;;;;97.88;52.72;;;6.60;99.90;;;;;;5071645;28;20763;-81
2020/12/12 05:38:13;;;;;;;128.73;66.40;;;6.60;99.90;;;;;;5053558;28;20390;-80
2020/12/12 05:40:42;;;;;;;118.88;60.08;;;6.50;99.90;;;;;;5053616;28;20424;-80
2020/12/12 05:43:12;;;;;;;141.60;64.43;;;6.50;99.90;;;;;;5073649;28;20432;-79
2020/12/12 05:45:41;;;;;;;112.50;57.58;;;6.60;99.90;;;;;;5075449;28;20366;-80
2020/12/12 05:48:08;;;;;;;118.53;59.22;;;6.60;99.90;;;;;;5075394;28;20405;-79
2020/12/12 05:50:34;;;;;;;124.50;63.67;;;6.60;99.90;;;;;;5057081;28;20740;-79
2020/12/12 05:53:00;;;;;;;127.70;66.30;;;6.60;99.90;;;;;;5057046;28;20378;-78
2020/12/12 05:55:30;;;;;;;123.82;62.92;;;6.60;99.90;;;;;;5075258;28;20362;-78
2020/12/12 05:57:57;;;;;;;129.10;65.90;;;6.60;99.90;;;;;;5056920;28;20815;-78
2020/12/12 06:00:28;;;;;;;121.70;59.40;;;6.60;99.90;;;;;;5074682;28;20770;-80
2020/12/12 06:02:58;;;;;;;106.88;55.03;;;6.60;99.90;;;;;;5056665;28;20480;-80
2020/12/12 06:05:29;;;;;;;106.10;52.25;;;6.60;99.90;;;;;;5090480;28;20434;-81
2020/12/12 06:08:04;;;;;;;100.77;51.27;;;6.60;99.90;;;;;;5074903;28;20906;-79
2020/12/12 06:10:32;;;;;;;112.93;54.08;;;6.60;99.90;;;;;;5074956;28;20374;-80
2020/12/12 06:13:03;;;;;;;118.22;60.08;;;6.60;99.90;;;;;;5074555;28;20370;-79
2020/12/12 06:15:34;;;;;;;134.73;69.07;;;6.60;99.90;;;;;;5074468;28;20374;-80
2020/12/12 06:18:18;;;;;;;114.85;57.35;;;6.60;99.90;;;;;;5074361;28;20780;-81
2020/12/12 06:20:45;;;;;;;108.40;52.78;;;6.60;99.90;;;;;;5075011;28;20370;-80
2020/12/12 06:23:11;;;;;;;119.25;61.58;;;6.60;99.90;;;;;;5056475;28;20370;-80
2020/12/12 06:25:37;;;;;;;126.35;59.63;;;6.60;99.90;;;;;;5074326;28;20875;-80
2020/12/12 06:28:05;;;;;;;130.45;61.78;;;6.60;99.90;;;;;;5074224;28;20382;-80
2020/12/12 06:30:31;;;;;;;130.80;64.13;;;6.50;99.90;;;;;;5074235;28;20389;-80
2020/12/12 06:33:00;;;;;;;133.52;63.25;;;6.60;99.90;;;;;;5073953;28;21330;-80
2020/12/12 06:35:31;;;;;;;168.82;75.55;;;6.60;99.90;;;;;;5089485;28;20380;-79
2020/12/12 06:38:17;;;;;;;157.35;70.70;;;6.60;99.90;;;;;;5089215;28;20390;-80
2020/12/12 06:40:44;;;;;;;173.63;78.35;;;6.60;99.90;;;;;;5055497;28;20753;-79
2020/12/12 06:43:41;;;;;;;160.18;70.15;;;6.60;99.90;;;;;;5073905;28;20396;-79
2020/12/12 06:46:07;;;;;;;144.05;63.22;;;6.60;99.90;;;;;;5044766;28;20362;-79
2020/12/12 06:48:34;;;;;;;158.48;67.47;;;6.60;99.90;;;;;;5055905;28;20374;-79
2020/12/12 06:51:02;;;;;;;127.15;56.58;;;6.60;99.90;;;;;;5073797;28;20420;-80
2020/12/12 06:53:30;;;;;;;147.75;65.13;;;6.60;99.90;;;;;;5073400;28;20366;-80
2020/12/12 06:56:08;;;;;;;137.73;58.88;;;6.60;99.90;;;;;;5056405;28;20457;-80
2020/12/12 06:58:35;;;;;;;142.77;60.45;;;6.60;99.90;;;;;;5055644;28;20389;-80
2020/12/12 07:01:31;;;;;;;134.43;58.30;;;6.60;99.90;;;;;;5055871;28;20903;-80
2020/12/12 07:03:59;;;;;;;164.63;73.63;;;6.60;99.90;;;;;;5073521;28;20837;-80
2020/12/12 07:06:26;;;;;;;138.43;61.40;;;6.60;99.90;;;;;;5073502;28;20366;-80
2020/12/12 07:08:56;;;;;;;154.15;69.10;;;6.60;99.90;;;;;;5055534;28;20402;-80
2020/12/12 07:11:31;;;;;;;165.90;70.88;;;6.70;99.90;;;;;;5055555;28;20420;-80
2020/12/12 07:13:57;;;;;;;161.18;66.72;;;6.70;99.90;;;;;;5073467;28;20458;-80
2020/12/12 07:16:24;;;;;;;166.37;73.10;;;6.60;99.90;;;;;;5073213;28;20905;-80
2020/12/12 07:18:51;;;;;;;149.18;64.97;;;6.70;99.90;;;;;;5071605;28;20595;-80
2020/12/12 07:21:18;;;;;;;157.43;70.97;;;6.70;99.90;;;;;;5052437;28;20400;-80
2020/12/12 07:23:48;;;;;;;166.07;71.68;;;6.70;99.90;;;;;;5052571;28;20827;-80
2020/12/12 07:26:14;;;;;;;153.77;69.10;;;6.60;99.90;;;;;;5052282;28;20366;-80
2020/12/12 07:28:40;;;;;;;142.40;64.88;;;6.70;99.90;;;;;;5070394;28;20420;-80
2020/12/12 07:31:06;;;;;;;150.90;66.23;;;6.70;99.90;;;;;;5070389;28;20426;-80
2020/12/12 07:33:32;;;;;;;149.63;61.93;;;6.70;99.90;;;;;;5070076;28;20477;-80
2020/12/12 07:35:58;;;;;;;150.77;62.05;;;6.70;99.90;;;;;;5070504;28;20374;-80
2020/12/12 07:38:24;;;;;;;144.13;62.17;;;6.60;99.90;;;;;;5070123;28;20782;-80
2020/12/12 07:40:51;;;;;;;137.13;61.47;;;6.60;99.90;;;;;;5070337;28;20378;-80
2020/12/12 07:43:17;;;;;;;129.80;56.87;;;6.70;99.90;;;;;;5070157;28;20366;-81
2020/12/12 07:48:11;;;;;;;136.38;60.72;;;6.70;99.90;;;;;;5069984;28;20408;-81
2020/12/12 07:50:38;;;;;;;141.63;58.45;;;6.70;99.90;;;;;;5069876;28;20362;-80
2020/12/12 07:53:12;;;;;;;138.85;60.92;;;6.70;99.90;;;;;;5069807;28;20366;-80
2020/12/12 07:55:45;;;;;;;140.75;57.63;;;6.70;99.90;;;;;;5070219;28;20381;-80
2020/12/12 07:58:16;;;;;;;135.67;60.13;;;6.80;99.90;;;;;;5069685;28;20389;-80
2020/12/12 08:00:42;;;;;;;129.15;55.25;;;6.70;99.90;;;;;;5051644;28;20382;-80
2020/12/12 08:03:08;;;;;;;160.00;65.80;;;6.70;99.90;;;;;;5070030;28;20369;-81
2020/12/12 08:05:34;;;;;;;155.32;61.97;;;6.70;99.90;;;;;;5069059;28;20374;-81
2020/12/12 08:08:09;;;;;;;157.88;67.47;;;6.70;99.90;;;;;;5069774;28;20423;-81
2020/12/12 08:10:35;;;;;;;141.48;64.15;;;6.70;99.90;;;;;;5051660;28;20394;-82
2020/12/12 08:13:01;;;;;;;152.55;71.03;;;6.80;99.90;;;;;;5070009;28;20392;-82
2020/12/12 08:15:34;;;;;;;152.00;70.80;;;6.70;99.90;;;;;;5069675;28;20455;-82
2020/12/12 08:18:16;;;;;;;173.75;79.93;;;6.80;99.90;;;;;;5051739;28;20757;-82
2020/12/12 08:20:42;;;;;;;140.63;62.03;;;6.80;99.90;;;;;;5069484;28;20366;-81
2020/12/12 08:23:14;;;;;;;148.40;73.70;;;6.80;99.90;;;;;;5069917;28;20369;-81
2020/12/12 08:25:41;;;;;;;145.23;75.32;;;6.90;99.90;;;;;;5069785;28;20860;-81
2020/12/12 08:28:08;;;;;;;145.70;73.97;;;6.80;99.90;;;;;;5069544;28;20455;-80
2020/12/12 08:30:34;;;;;;;143.10;71.38;;;6.90;99.90;;;;;;5069699;28;20378;-81
2020/12/12 08:33:11;;;;;;;127.22;65.60;;;6.80;99.90;;;;;;5069582;28;20428;-81
2020/12/12 08:35:37;;;;;;;141.30;72.78;;;6.80;99.90;;;;;;5069509;28;20493;-82
2020/12/12 08:38:11;;;;;;;127.07;68.80;;;6.90;99.90;;;;;;5051013;28;20395;-81
2020/12/12 08:40:47;;;;;;;162.20;66.10;;;6.90;99.90;;;;;;5051379;28;20443;-81
2020/12/12 08:43:15;;;;;;;124.13;66.80;;;7.00;99.90;;;;;;5069376;28;20449;-80
2020/12/12 08:45:43;;;;;;;121.28;65.43;;;7.00;99.90;;;;;;5069377;28;20382;-81
2020/12/12 08:48:14;;;;;;;122.93;64.07;;;7.00;99.90;;;;;;5069417;28;20381;-80
2020/12/12 08:50:48;;;;;;;106.82;58.67;;;6.90;99.90;;;;;;5051058;28;20377;-81
2020/12/12 08:53:22;;;;;;;97.90;55.40;;;6.90;99.90;;;;;;5051279;28;20523;-80
2020/12/12 08:56:06;;;;;;;97.65;54.50;;;7.00;99.90;;;;;;5051162;28;20370;-80
2020/12/12 08:58:57;;;;;;;97.85;54.17;;;6.90;99.90;;;;;;5069576;28;20895;-80
2020/12/12 09:01:33;;;;;;;98.97;57.23;;;6.90;99.90;;;;;;5069224;28;20374;-80
2020/12/12 09:04:05;;;;;;;114.22;64.72;;;7.00;99.90;;;;;;5069146;28;20749;-81
2020/12/12 09:06:38;;;;;;;105.60;58.03;;;7.10;99.90;;;;;;5069145;28;20404;-80
2020/12/12 09:09:15;;;;;;;96.43;53.75;;;7.10;99.90;;;;;;5051137;28;20708;-80
2020/12/12 09:11:48;;;;;;;93.40;53.08;;;7.10;99.90;;;;;;5069098;28;20432;-80
2020/12/12 09:14:14;;;;;;;87.20;51.30;;;7.10;99.90;;;;;;5050989;28;20396;-80
2020/12/12 09:16:48;;;;;;;94.20;53.42;;;7.10;99.90;;;;;;5052183;28;20861;-80
2020/12/12 09:19:14;;;;;;;117.13;60.55;;;7.10;99.90;;;;;;5072820;28;20370;-80
2020/12/12 09:21:39;;;;;;;99.30;56.15;;;7.10;99.90;;;;;;5055001;28;20382;-81
2020/12/12 09:24:06;;;;;;;104.10;60.85;;;7.20;99.90;;;;;;5055101;28;20832;-81
2020/12/12 09:26:32;;;;;;;135.65;76.22;;;7.20;99.90;;;;;;5072770;28;20404;-81
2020/12/12 09:28:58;;;;;;;122.55;63.47;;;7.20;99.90;;;;;;5072718;28;20366;-81
2020/12/12 09:31:25;;;;;;;99.78;57.65;;;7.20;99.90;;;;;;5072616;28;20372;-80
2020/12/12 09:33:51;;;;;;;88.65;52.05;;;7.20;99.90;;;;;;5054587;28;20884;-80
2020/12/12 09:36:17;;;;;;;89.53;51.38;;;7.20;99.90;;;;;;5072435;28;20374;-80
2020/12/12 09:38:43;;;;;;;86.30;49.90;;;7.20;99.90;;;;;;5054497;28;20799;-80
2020/12/12 09:41:09;;;;;;;83.20;51.50;;;7.20;99.90;;;;;;5072375;28;20374;-80
2020/12/12 09:43:35;;;;;;;91.05;52.38;;;7.20;99.90;;;;;;5072479;28;20861;-81
2020/12/12 09:46:01;;;;;;;90.70;55.70;;;7.20;99.90;;;;;;5072299;28;20836;-81
2020/12/12 09:48:27;;;;;;;105.07;61.80;;;7.20;99.90;;;;;;5072214;28;20469;-80
2020/12/12 09:50:53;;;;;;;112.15;63.58;;;7.20;99.90;;;;;;5072259;28;20775;-81
2020/12/12 09:53:19;;;;;;;109.15;66.20;;;7.30;99.90;;;;;;5072069;28;20456;-81
2020/12/12 09:55:46;;;;;;;99.00;60.20;;;7.30;99.90;;;;;;5072289;28;20852;-81
2020/12/12 09:58:12;;;;;;;94.38;56.53;;;7.30;99.90;;;;;;5071992;28;20416;-81
2020/12/12 10:00:39;;;;;;;86.18;52.85;;;7.30;99.90;;;;;;5072230;28;20457;-81
2020/12/12 10:03:05;;;;;;;89.43;50.38;;;7.30;99.90;;;;;;5071881;28;20367;-82
2020/12/12 10:05:35;;;;;;;81.13;47.33;;;7.30;99.90;;;;;;5071999;28;20362;-82
2020/12/12 10:08:03;;;;;;;74.93;44.53;;;7.30;99.90;;;;;;5071954;28;20852;-82
2020/12/12 10:10:29;;;;;;;81.03;50.20;;;7.30;99.90;;;;;;5054130;28;20389;-82
2020/12/12 10:12:56;;;;;;;81.40;49.72;;;7.30;99.90;;;;;;5053685;28;20421;-82
2020/12/12 10:15:22;;;;;;;89.73;53.80;;;7.30;99.90;;;;;;5071837;28;20810;-82
2020/12/12 10:17:49;;;;;;;89.43;52.15;;;7.30;99.90;;;;;;5071577;28;20443;-82
2020/12/12 10:20:17;;;;;;;70.30;44.67;;;7.30;99.90;;;;;;5071784;28;20371;-83
2020/12/12 10:22:43;;;;;;;67.78;41.47;;;7.20;99.90;;;;;;5071673;28;20359;-82
2020/12/12 10:25:09;;;;;;;76.00;45.97;;;7.20;99.90;;;;;;5071598;28;20369;-82
2020/12/12 10:27:36;;;;;;;74.85;45.97;;;7.20;99.90;;;;;;5053424;28;20378;-82
2020/12/12 10:30:03;;;;;;;67.50;40.78;;;7.30;99.90;;;;;;5071008;28;20362;-82
2020/12/12 10:32:29;;;;;;;72.60;41.90;;;7.30;99.90;;;;;;5071501;28;20381;-82
2020/12/12 10:34:55;;;;;;;79.18;48.88;;;7.30;99.90;;;;;;5071194;28;20390;-82
2020/12/12 10:37:21;;;;;;;94.75;58.10;;;7.30;99.90;;;;;;5071278;28;20527;-82
2020/12/12 10:40:31;;;;;;;82.03;49.70;;;7.30;99.90;;;;;;5071322;28;20415;-83
2020/12/12 10:42:36;;;;;;;87.88;55.45;;;7.30;99.90;;;;;;5062911;28;20370;-82
2020/12/12 10:45:06;;;;;;;138.25;78.57;;;7.30;99.90;;;;;;5071163;28;20916;-82
2020/12/12 10:47:33;;;;;;;151.98;82.45;;;7.30;99.90;;;;;;5053031;28;20464;-82
2020/12/12 10:49:59;;;;;;;168.63;89.95;;;7.40;99.90;;;;;;5053023;28;20918;-82
2020/12/12 10:52:25;;;;;;;168.98;95.40;;;7.30;99.90;;;;;;5071109;28;20374;-82
2020/12/12 10:54:51;;;;;;;141.05;83.15;;;7.40;99.90;;;;;;5071070;28;20397;-82
2020/12/12 10:57:17;;;;;;;124.57;71.82;;;7.40;99.90;;;;;;5052847;28;20519;-82
2020/12/12 10:59:43;;;;;;;130.32;69.95;;;7.40;99.90;;;;;;5071053;28;20369;-82
2020/12/12 11:02:11;;;;;;;139.30;75.75;;;7.30;99.90;;;;;;5070802;28;20411;-82
2020/12/12 11:04:38;;;;;;;188.25;107.68;;;7.40;99.90;;;;;;5070893;28;20362;-82
2020/12/12 11:07:04;;;;;;;146.52;82.00;;;7.30;99.90;;;;;;5070778;28;20393;-82
2020/12/12 11:09:31;;;;;;;119.25;64.13;;;7.30;99.90;;;;;;5070781;28;20845;-81
2020/12/12 11:11:56;;;;;;;133.00;71.20;;;7.30;99.90;;;;;;5070691;28;20382;-82
2020/12/12 11:14:24;;;;;;;134.10;73.78;;;7.30;99.90;;;;;;5052722;28;20404;-82
2020/12/12 11:16:51;;;;;;;134.77;71.90;;;7.30;99.90;;;;;;5052321;28;20393;-81
2020/12/12 11:19:17;;;;;;;148.55;76.68;;;7.30;99.90;;;;;;5070534;28;20362;-82
2020/12/12 11:21:43;;;;;;;128.95;68.53;;;7.30;99.90;;;;;;5052672;28;20901;-82
2020/12/12 11:24:09;;;;;;;122.82;66.88;;;7.30;99.90;;;;;;5070714;28;20365;-82
2020/12/12 11:26:35;;;;;;;112.35;60.35;;;7.30;99.90;;;;;;5071080;28;20366;-81
2020/12/12 11:29:01;;;;;;;118.43;64.18;;;7.40;99.90;;;;;;5070540;28;20398;-81
2020/12/12 11:31:26;;;;;;;112.60;64.28;;;7.40;99.90;;;;;;5052327;28;20858;-81
2020/12/12 11:34:02;;;;;;;121.30;68.18;;;7.50;99.90;;;;;;5070239;28;20386;-81
2020/12/12 11:37:32;;;;;;;117.10;66.47;;;7.50;99.90;;;;;;5070189;28;20372;-81
2020/12/12 11:39:49;;;;;;;121.47;71.10;;;7.50;99.90;;;;;;5047920;28;20370;-81
2020/12/12 11:42:36;;;;;;;118.78;67.13;;;7.50;99.90;;;;;;5070081;28;20370;-81
2020/12/12 11:47:33;;;;;;;124.80;71.70;;;7.50;99.90;;;;;;5069969;28;20370;-81
2020/12/12 11:49:59;;;;;;;157.93;87.38;;;7.50;99.90;;;;;;5070009;28;20366;-81
2020/12/12 11:52:25;;;;;;;112.90;64.13;;;7.60;99.90;;;;;;5051923;28;20463;-81
2020/12/12 11:54:50;;;;;;;111.90;63.88;;;7.70;99.90;;;;;;5069998;28;20374;-81
2020/12/12 11:57:16;;;;;;;98.47;56.40;;;7.70;99.90;;;;;;5051777;28;20753;-81
2020/12/12 11:59:45;;;;;;;97.03;59.45;;;7.70;99.90;;;;;;5069842;28;20362;-81
2020/12/12 12:02:11;;;;;;;113.40;67.25;;;7.70;99.90;;;;;;5069810;28;20397;-81
2020/12/12 12:04:37;;;;;;;132.13;79.32;;;7.70;99.90;;;;;;5069623;28;20389;-81
2020/12/12 12:07:04;;;;;;;116.27;66.67;;;7.80;99.90;;;;;;5069778;28;20432;-81
2020/12/12 12:09:36;;;;;;;89.33;55.30;;;7.80;99.90;;;;;;5051530;28;20895;-81
2020/12/12 12:12:02;;;;;;;102.72;60.58;;;7.70;99.90;;;;;;5069808;28;20374;-81
2020/12/12 12:14:28;;;;;;;108.80;63.22;;;7.70;99.90;;;;;;5069567;28;20378;-81
2020/12/12 12:16:54;;;;;;;100.05;60.45;;;7.80;99.90;;;;;;5069604;28;20386;-81
2020/12/12 12:19:20;;;;;;;92.63;58.35;;;7.80;99.90;;;;;;5069623;28;20374;-81
2020/12/12 12:21:50;;;;;;;95.38;60.17;;;7.80;99.90;;;;;;5069583;28;20355;-81
2020/12/12 12:24:17;;;;;;;90.82;57.05;;;7.80;99.90;;;;;;5069445;28;20368;-81
2020/12/12 12:26:49;;;;;;;115.32;67.60;;;7.80;99.90;;;;;;5069579;28;20354;-81
2020/12/12 12:29:16;;;;;;;336.43;181.50;;;7.90;99.90;;;;;;5069958;28;20393;-81
2020/12/12 12:31:43;;;;;;;230.40;127.85;;;7.90;99.90;;;;;;5069612;28;20919;-81
2020/12/12 12:34:10;;;;;;;151.13;90.43;;;7.90;99.90;;;;;;5069576;28;20426;-81
2020/12/12 12:36:38;;;;;;;116.40;71.73;;;7.90;99.90;;;;;;5069556;28;20859;-81
2020/12/12 12:39:06;;;;;;;148.02;90.03;;;7.90;99.90;;;;;;5069685;28;20422;-81
2020/12/12 12:41:33;;;;;;;233.35;131.52;;;7.90;99.90;;;;;;5051231;28;20435;-81
2020/12/12 12:44:03;;;;;;;129.48;79.78;;;8.00;99.90;;;;;;5069418;28;20449;-81
2020/12/12 12:46:30;;;;;;;107.90;67.07;;;7.90;99.90;;;;;;5069240;28;20366;-81
2020/12/12 12:48:56;;;;;;;136.07;84.90;;;7.90;99.90;;;;;;5069291;28;20374;-81
2020/12/12 12:51:22;;;;;;;180.18;115.53;;;7.90;99.90;;;;;;5069923;28;20362;-81
2020/12/12 12:53:48;;;;;;;182.10;124.15;;;7.90;99.90;;;;;;5073436;28;20368;-81
2020/12/12 12:56:19;;;;;;;159.57;94.10;;;7.90;99.90;;;;;;5055224;28;20386;-81
2020/12/12 12:58:45;;;;;;;133.77;83.90;;;7.90;99.90;;;;;;5073152;28;20504;-80
2020/12/12 13:01:19;;;;;;;136.73;85.50;;;7.90;99.90;;;;;;5073220;28;20374;-81
2020/12/12 13:03:45;;;;;;;141.07;90.53;;;7.90;99.90;;;;;;5073230;28;20393;-81
2020/12/12 13:06:17;;;;;;;125.38;75.13;;;7.90;99.90;;;;;;5055163;28;20477;-81
2020/12/12 13:08:43;;;;;;;117.00;69.60;;;7.90;99.90;;;;;;5073117;28;20370;-81